KFLD/FLD METAR and TAF weather

Enter ICAO airport designator
Station Type Date Time Source
KFLD METAR 2020/02/19 10:53 UTC NOAA

KFLD 191053Z AUTO 28006KT 10SM CLR M14/M19 A3052 RMK AO2 SNE0956B14E26 SLP350 P0000 T11391194


Station Type Date Time Source
KFLD Decoded METAR 2020/02/19 10:53 UTC NOAA

FOND DU LAC COUNTY AIRPORT, WI, United States (KFLD) 43-46N 88-29W 240M
Feb 19, 2020 - 05:53 AM EST / 2020.02.19 1053 UTC
Wind: from the W (280 degrees) at 7 MPH (6 KT):0
Visibility: 10 mile(s):0
Sky conditions: clear
Precipitation last hour: A trace
Temperature: 7.0 F (-13.9 C)
Windchill: -4 F (-20 C):1
Dew Point: -2.9 F (-19.4 C)
Relative Humidity: 63%
Pressure (altimeter): 30.52 in. Hg (1033 hPa)
ob: KFLD 191053Z AUTO 28006KT 10SM CLR M14/M19 A3052 RMK AO2 SNE0956B14E26 SLP350 P0000 T11391194
cycle: 11

Station Type Date Time Source
KFLD TAF UTC NOAA

Error!

Example: see airport list